Time;durP1;ratioP1;P1;durP2;ratioP2;P2;SDS_P1;SDS_P2;PMS_P1;PMS_P2;Temp;Humidity;BMP_temperature;BMP_pressure;BME280_temperature;BME280_humidity;BME280_pressure;Samples;Min_cycle;Max_cycle;Signal;HPM_P1;HPM_P2
2022/09/02 00:01:01;;;;;;;6.38;5.00;;;;;;;13.12;67.81;93898.44;5008992;28;21572;-67
2022/09/02 00:03:30;;;;;;;7.13;5.00;;;;;;;13.11;67.11;93891.38;5010075;28;20060;-69
2022/09/02 00:05:57;;;;;;;6.90;4.80;;;;;;;13.08;67.22;93889.50;5008105;28;20631;-64
2022/09/02 00:08:24;;;;;;;7.38;5.13;;;;;;;13.08;66.64;93885.94;5007859;28;20045;-67
2022/09/02 00:10:51;;;;;;;9.48;6.28;;;;;;;13.11;66.27;93890.59;5008215;28;20072;-65
2022/09/02 00:13:22;;;;;;;7.82;5.13;;;;;;;13.08;66.58;93894.19;5009755;28;20045;-65
2022/09/02 00:15:49;;;;;;;7.83;4.53;;;;;;;13.03;67.19;93881.72;5008813;28;20050;-66
2022/09/02 00:18:17;;;;;;;7.00;4.88;;;;;;;12.96;66.77;93882.69;5009949;28;20052;-66
2022/09/02 00:20:47;;;;;;;7.43;4.38;;;;;;;12.91;66.90;93888.72;5009089;28;20042;-66
2022/09/02 00:23:15;;;;;;;6.68;4.53;;;;;;;12.80;67.44;93888.22;5009860;28;20038;-69
2022/09/02 00:25:43;;;;;;;6.95;4.80;;;;;;;12.83;67.59;93886.56;5008612;28;20042;-69
2022/09/02 00:28:12;;;;;;;6.77;4.83;;;;;;;12.87;67.24;93887.25;5009699;28;20034;-64
2022/09/02 00:30:39;;;;;;;7.00;4.63;;;;;;;12.94;66.62;93892.59;5006948;28;20496;-68
2022/09/02 00:33:06;;;;;;;7.43;4.63;;;;;;;12.95;66.92;93900.41;4993819;28;20426;-69
2022/09/02 00:35:33;;;;;;;7.32;4.57;;;;;;;12.88;67.68;93894.34;5008178;28;20041;-67
2022/09/02 00:38:00;;;;;;;6.90;4.90;;;;;;;12.90;67.81;93894.66;5009213;28;20048;-66
2022/09/02 00:40:28;;;;;;;8.37;4.93;;;;;;;12.83;67.79;93889.31;5009261;28;20442;-66
2022/09/02 00:42:55;;;;;;;7.32;4.90;;;;;;;12.68;69.17;93899.91;5008941;28;20046;-65
2022/09/02 00:45:23;;;;;;;8.88;5.03;;;;;;;12.52;69.53;93889.66;5009112;28;20453;-69
2022/09/02 00:47:50;;;;;;;8.32;5.40;;;;;;;12.55;69.04;93892.31;5008666;28;20054;-65
2022/09/02 00:50:22;;;;;;;7.75;5.10;;;;;;;12.54;69.65;93879.78;5009164;28;20049;-66
2022/09/02 00:52:57;;;;;;;7.70;5.00;;;;;;;12.68;67.80;93881.41;5008349;28;20365;-68
2022/09/02 00:55:40;;;;;;;6.45;4.30;;;;;;;12.69;68.24;93882.19;5009378;28;20038;-65
2022/09/02 00:58:12;;;;;;;6.97;4.80;;;;;;;12.61;68.84;93878.06;5008408;28;21535;-65
2022/09/02 01:00:43;;;;;;;7.07;4.85;;;;;;;12.58;68.85;93885.97;5008483;28;20081;-67
2022/09/02 01:03:17;;;;;;;6.20;4.80;;;;;;;12.54;68.36;93873.50;5007717;28;20045;-67
2022/09/02 01:05:47;;;;;;;7.17;4.50;;;;;;;12.53;68.58;93877.44;5008519;28;20041;-64
2022/09/02 01:08:21;;;;;;;6.72;4.70;;;;;;;12.56;68.25;93885.63;5009135;28;20038;-66
2022/09/02 01:10:48;;;;;;;6.07;4.57;;;;;;;12.61;68.10;93887.06;5008719;28;20042;-64
2022/09/02 01:13:19;;;;;;;7.03;4.22;;;;;;;12.69;67.07;93871.16;5009093;28;20050;-65
2022/09/02 01:15:50;;;;;;;7.38;5.20;;;;;;;12.70;67.15;93870.75;5008363;28;20050;-65
2022/09/02 01:18:21;;;;;;;5.93;4.20;;;;;;;12.56;68.25;93868.34;5010958;28;20041;-64
2022/09/02 01:20:48;;;;;;;5.78;3.92;;;;;;;12.59;67.51;93873.72;5011956;28;20514;-64
2022/09/02 01:23:16;;;;;;;6.00;3.90;;;;;;;12.62;67.01;93865.84;5012911;28;20046;-68
2022/09/02 01:25:43;;;;;;;5.97;3.92;;;;;;;12.56;67.10;93866.34;5011776;28;20549;-66
2022/09/02 01:28:14;;;;;;;6.03;3.95;;;;;;;12.46;67.82;93870.13;4999312;28;20038;-67
2022/09/02 01:30:46;;;;;;;5.73;3.73;;;;;;;12.56;66.29;93863.59;5011886;28;20736;-65
2022/09/02 01:33:13;;;;;;;5.68;4.07;;;;;;;12.63;66.07;93864.63;5012450;28;20048;-65
2022/09/02 01:35:40;;;;;;;6.90;3.85;;;;;;;12.51;66.66;93860.56;5011163;28;20060;-64
2022/09/02 01:38:08;;;;;;;5.97;3.78;;;;;;;12.51;66.67;93872.34;5012319;28;20387;-69
2022/09/02 01:40:35;;;;;;;6.78;3.72;;;;;;;12.47;66.20;93866.16;5010344;28;20042;-69
2022/09/02 01:43:13;;;;;;;6.00;3.87;;;;;;;12.44;66.12;93858.78;5013002;28;20048;-68
2022/09/02 01:45:43;;;;;;;6.18;3.55;;;;;;;12.39;66.05;93859.28;5011879;28;20050;-65
2022/09/02 01:48:11;;;;;;;6.38;3.63;;;;;;;12.41;65.70;93867.09;5012331;28;20100;-64
2022/09/02 01:50:46;;;;;;;5.10;3.50;;;;;;;12.46;65.48;93856.38;5011270;28;20042;-65
2022/09/02 01:53:13;;;;;;;5.50;3.72;;;;;;;12.45;65.58;93854.03;5012047;28;20046;-65
2022/09/02 01:55:40;;;;;;;6.47;3.80;;;;;;;12.45;65.11;93852.06;5011458;28;20050;-64
2022/09/02 01:58:07;;;;;;;6.00;3.88;;;;;;;12.41;65.36;93845.09;5012011;28;20450;-68
2022/09/02 02:00:34;;;;;;;5.32;3.67;;;;;;;12.48;65.20;93848.47;4995171;28;20430;-65
2022/09/02 02:03:01;;;;;;;5.22;3.50;;;;;;;12.43;64.96;93848.19;5011951;28;20068;-68
2022/09/02 02:05:29;;;;;;;5.15;3.72;;;;;;;12.43;65.23;93846.19;5011870;28;20477;-66
2022/09/02 02:07:56;;;;;;;6.67;3.80;;;;;;;12.43;65.18;93842.69;5010742;28;20042;-70
2022/09/02 02:10:23;;;;;;;5.38;3.63;;;;;;;12.37;64.99;93845.97;5011615;28;20108;-65
2022/09/02 02:12:50;;;;;;;5.32;3.78;;;;;;;12.38;64.33;93839.25;5011087;28;20378;-64
2022/09/02 02:15:18;;;;;;;6.65;3.53;;;;;;;12.47;63.84;93830.38;5010379;28;20038;-64
2022/09/02 02:17:45;;;;;;;6.30;3.70;;;;;;;12.51;63.98;93830.28;5011095;28;20048;-64
2022/09/02 02:20:17;;;;;;;5.73;3.50;;;;;;;12.45;64.27;93843.03;5010445;28;20042;-65
2022/09/02 02:22:44;;;;;;;5.35;3.50;;;;;;;12.35;65.06;93842.88;5010610;28;20038;-64
2022/09/02 02:25:14;;;;;;;5.75;3.78;;;;;;;12.30;65.52;93834.34;5011548;28;20443;-64
2022/09/02 02:27:41;;;;;;;5.82;3.78;;;;;;;12.23;65.41;93831.75;5010579;28;20045;-64
2022/09/02 02:30:11;;;;;;;5.57;3.50;;;;;;;12.22;66.05;93835.72;5010712;28;20446;-69
2022/09/02 02:32:38;;;;;;;7.17;3.50;;;;;;;12.02;66.51;93839.28;5010903;28;20428;-72
2022/09/02 02:35:05;;;;;;;5.20;3.45;;;;;;;12.18;65.58;93828.31;5011183;28;20038;-64
2022/09/02 02:37:32;;;;;;;6.13;3.50;;;;;;;12.35;64.60;93833.81;5010673;28;20415;-65
2022/09/02 02:39:59;;;;;;;5.30;3.25;;;;;;;12.23;65.25;93832.50;5010742;28;20041;-71
2022/09/02 02:42:26;;;;;;;5.60;3.92;;;;;;;12.13;65.74;93839.03;5007779;28;20487;-65
2022/09/02 02:44:52;;;;;;;5.70;3.97;;;;;;;12.11;66.23;93833.19;5011110;28;20038;-64
2022/09/02 02:47:19;;;;;;;5.32;3.63;;;;;;;12.20;65.69;93841.63;5011136;28;20034;-64
2022/09/02 02:49:46;;;;;;;6.40;3.70;;;;;;;12.15;65.88;93839.38;5010201;28;20042;-64
2022/09/02 02:52:13;;;;;;;5.78;3.83;;;;;;;12.05;66.33;93843.91;5010986;28;20052;-64
2022/09/02 02:54:40;;;;;;;6.43;3.80;;;;;;;12.01;66.62;93840.47;5010181;28;20099;-73
2022/09/02 02:57:08;;;;;;;6.00;3.70;;;;;;;12.00;66.47;93841.69;5010739;28;20038;-67
2022/09/02 02:59:36;;;;;;;4.95;3.80;;;;;;;11.92;66.64;93840.28;5010670;28;20041;-64
2022/09/02 03:02:05;;;;;;;5.45;3.53;;;;;;;11.78;67.46;93841.34;5010470;28;20384;-65
2022/09/02 03:04:32;;;;;;;5.97;3.80;;;;;;;11.76;67.66;93841.00;5010382;28;20038;-65
2022/09/02 03:06:59;;;;;;;4.90;3.78;;;;;;;11.78;67.61;93842.09;5010251;28;20038;-65
2022/09/02 03:09:26;;;;;;;4.83;3.53;;;;;;;11.73;67.85;93839.88;5010785;28;20048;-64
2022/09/02 03:11:53;;;;;;;4.95;3.58;;;;;;;11.68;67.82;93840.34;5009955;28;20046;-64
2022/09/02 03:14:20;;;;;;;4.88;3.63;;;;;;;11.66;68.46;93844.75;5010258;28;20061;-65
2022/09/02 03:16:46;;;;;;;6.25;3.67;;;;;;;11.63;67.95;93837.31;5009988;28;20058;-64
2022/09/02 03:19:13;;;;;;;7.53;3.88;;;;;;;11.66;68.09;93831.00;5010327;28;20610;-66
2022/09/02 03:21:40;;;;;;;6.00;3.50;;;;;;;11.61;68.51;93840.53;5009969;28;20064;-64
2022/09/02 03:24:10;;;;;;;6.10;4.20;;;;;;;11.62;68.49;93833.81;5010489;28;20046;-64
2022/09/02 03:26:37;;;;;;;6.47;3.70;;;;;;;11.69;68.14;93830.13;5008464;28;20099;-64
2022/09/02 03:29:04;;;;;;;6.30;4.00;;;;;;;11.55;68.97;93823.75;5008804;28;20041;-64
2022/09/02 03:31:31;;;;;;;5.88;3.90;;;;;;;11.60;68.79;93831.47;5010242;28;20402;-64
2022/09/02 03:33:58;;;;;;;5.30;3.57;;;;;;;11.62;68.91;93827.53;5008866;28;20693;-69
2022/09/02 03:36:26;;;;;;;7.57;3.90;;;;;;;11.64;68.89;93823.16;5010279;28;20048;-65
2022/09/02 03:38:54;;;;;;;6.68;3.92;;;;;;;11.71;68.27;93823.03;5009747;28;20050;-64
2022/09/02 03:41:20;;;;;;;6.05;4.00;;;;;;;11.73;68.12;93833.56;5007569;28;20072;-64
2022/09/02 03:43:48;;;;;;;6.38;3.72;;;;;;;11.66;68.49;93826.25;5002293;28;20041;-64
2022/09/02 03:46:15;;;;;;;5.87;4.30;;;;;;;11.46;69.53;93831.78;5009764;28;20475;-64
2022/09/02 03:48:43;;;;;;;5.40;3.90;;;;;;;11.51;69.23;93828.53;5009595;28;20042;-64
2022/09/02 03:51:11;;;;;;;6.20;4.05;;;;;;;11.26;70.75;93822.75;5008674;28;20044;-64
2022/09/02 03:53:38;;;;;;;5.35;3.97;;;;;;;11.06;71.95;93825.50;5009430;28;20281;-66
2022/09/02 03:56:07;;;;;;;6.18;4.22;;;;;;;10.96;72.47;93822.50;5009445;28;20111;-64
2022/09/02 03:58:35;;;;;;;5.87;3.90;;;;;;;11.03;71.90;93821.63;5009326;28;20115;-69
2022/09/02 04:01:03;;;;;;;7.15;4.30;;;;;;;11.09;72.42;93816.41;5009317;28;20042;-69
2022/09/02 04:03:30;;;;;;;6.03;4.25;;;;;;;10.86;73.37;93836.44;5008256;28;20056;-66
2022/09/02 04:05:57;;;;;;;7.00;4.60;;;;;;;10.79;73.76;93823.63;5008538;28;20100;-66
2022/09/02 04:08:25;;;;;;;8.35;4.45;;;;;;;10.47;75.35;93829.66;5009610;28;20091;-66
2022/09/02 04:10:51;;;;;;;6.13;4.63;;;;;;;10.47;75.60;93832.41;5008740;28;20081;-68
2022/09/02 04:13:18;;;;;;;7.03;4.30;;;;;;;10.47;75.59;93830.41;5009658;28;20083;-64
2022/09/02 04:15:47;;;;;;;8.25;4.53;;;;;;;10.19;77.24;93826.13;5009048;28;20042;-66
2022/09/02 04:21:39;;;;;;;6.90;4.97;;;;;;;10.28;76.59;93825.59;5008036;28;20056;-64
2022/09/02 04:24:08;;;;;;;6.70;4.77;;;;;;;10.22;76.99;93825.28;5009140;28;20050;-65
2022/09/02 04:26:36;;;;;;;9.05;5.10;;;;;;;10.33;76.47;93819.69;5008929;28;20046;-64
2022/09/02 04:29:10;;;;;;;6.55;4.78;;;;;;;10.23;77.02;93821.38;5009402;28;20045;-64
2022/09/02 04:31:37;;;;;;;7.30;5.10;;;;;;;10.05;77.87;93827.13;5008913;28;20045;-64
2022/09/02 04:34:06;;;;;;;6.97;5.05;;;;;;;9.97;78.21;93826.44;5008997;28;20045;-67
2022/09/02 04:36:32;;;;;;;7.77;5.30;;;;;;;9.98;78.22;93827.25;4998238;28;20053;-63
2022/09/02 04:38:59;;;;;;;8.15;5.82;;;;;;;9.76;79.10;93830.28;5009068;28;20406;-63
2022/09/02 04:41:29;;;;;;;7.03;5.00;;;;;;;9.85;79.12;93828.97;5008437;28;20040;-63
2022/09/02 04:43:58;;;;;;;7.05;4.93;;;;;;;9.79;79.05;93815.72;5009521;28;20050;-63
2022/09/02 04:46:25;;;;;;;9.77;5.47;;;;;;;9.94;78.38;93821.81;5009447;28;20083;-63
2022/09/02 04:49:02;;;;;;;7.17;4.80;;;;;;;9.71;79.62;93829.94;5008011;28;20769;-63
2022/09/02 04:51:29;;;;;;;7.35;5.18;;;;;;;9.75;79.77;93830.66;5009361;28;20054;-64
2022/09/02 04:53:56;;;;;;;7.70;4.93;;;;;;;9.78;79.65;93827.88;5011176;28;20428;-64
2022/09/02 04:56:26;;;;;;;7.35;5.28;;;;;;;9.96;78.59;93824.91;5012939;28;20052;-63
2022/09/02 04:58:54;;;;;;;9.25;5.13;;;;;;;9.84;78.84;93830.94;5012484;28;20042;-66
2022/09/02 05:01:27;;;;;;;8.20;5.20;;;;;;;9.91;79.08;93822.63;5012955;28;20046;-65
2022/09/02 05:03:54;;;;;;;8.00;5.68;;;;;;;9.56;80.08;93823.88;5012438;28;20068;-63
2022/09/02 05:06:26;;;;;;;9.90;4.95;;;;;;;9.78;79.52;93832.59;5012413;28;20053;-63
2022/09/02 05:08:55;;;;;;;7.35;5.15;;;;;;;9.82;79.46;93830.59;5011756;28;20080;-67
2022/09/02 05:11:27;;;;;;;6.90;4.88;;;;;;;9.82;79.76;93825.09;5012675;28;20525;-64
2022/09/02 05:13:56;;;;;;;9.13;5.30;;;;;;;9.99;79.11;93829.53;5012162;28;20042;-68
2022/09/02 05:16:26;;;;;;;7.60;5.28;;;;;;;9.71;80.39;93827.22;5012370;28;20528;-64
2022/09/02 05:18:54;;;;;;;8.07;5.60;;;;;;;9.65;80.00;93824.16;5011924;28;20072;-63
2022/09/02 05:21:23;;;;;;;9.55;5.10;;;;;;;9.77;80.45;93826.31;5012404;28;20048;-63
2022/09/02 05:23:50;;;;;;;7.65;5.00;;;;;;;9.91;79.39;93827.31;5011812;28;20045;-65
2022/09/02 05:26:20;;;;;;;7.00;4.90;;;;;;;9.95;79.59;93822.56;5011872;28;20084;-65
2022/09/02 05:28:47;;;;;;;6.97;4.93;;;;;;;9.93;79.68;93833.16;5010694;28;20037;-62
2022/09/02 05:31:16;;;;;;;8.60;5.50;;;;;;;10.00;79.21;93831.09;5011519;28;20053;-63
2022/09/02 05:33:43;;;;;;;8.05;4.82;;;;;;;10.07;79.65;93824.72;5011028;28;20095;-63
2022/09/02 05:36:17;;;;;;;8.93;5.18;;;;;;;10.15;79.31;93834.41;5011295;28;20048;-64
2022/09/02 05:38:45;;;;;;;7.67;5.57;;;;;;;10.06;79.75;93834.16;5010895;28;20046;-63
2022/09/02 05:41:16;;;;;;;7.68;5.38;;;;;;;9.99;80.44;93828.78;5011400;28;20052;-63
2022/09/02 05:43:43;;;;;;;9.07;5.70;;;;;;;10.10;80.10;93839.56;5011051;28;20050;-63
2022/09/02 05:46:13;;;;;;;10.52;6.07;;;;;;;10.15;80.37;93839.13;5010679;28;20045;-66
2022/09/02 05:51:25;;;;;;;11.43;6.03;;;;;;;10.39;79.51;93831.72;5012305;28;20042;-64
2022/09/02 05:53:56;;;;;;;8.52;6.28;;;;;;;10.04;81.36;93831.06;5011185;28;20053;-67
2022/09/02 05:56:23;;;;;;;12.07;5.95;;;;;;;10.50;79.37;93834.28;5011970;28;20042;-64
2022/09/02 05:58:50;;;;;;;8.63;5.80;;;;;;;10.48;79.00;93844.91;5010311;28;20410;-71
2022/09/02 06:01:18;;;;;;;8.55;5.60;;;;;;;10.57;79.32;93839.69;5008983;28;20419;-64
2022/09/02 06:03:45;;;;;;;8.33;5.70;;;;;;;10.49;79.08;93839.00;5010782;28;20050;-63
2022/09/02 06:06:13;;;;;;;9.57;5.20;;;;;;;10.65;78.51;93835.63;5011437;28;20103;-64
2022/09/02 06:08:40;;;;;;;9.30;4.95;;;;;;;10.52;79.46;93831.91;5011058;28;20052;-64
2022/09/02 06:11:09;;;;;;;8.32;4.43;;;;;;;10.77;78.65;93834.25;5011145;28;20050;-64
2022/09/02 06:13:39;;;;;;;7.03;4.72;;;;;;;10.89;78.40;93827.38;5011031;28;20048;-64
2022/09/02 06:16:09;;;;;;;6.10;4.70;;;;;;;10.95;78.28;93826.47;5011131;28;20049;-64
2022/09/02 06:18:36;;;;;;;7.47;4.60;;;;;;;11.13;77.65;93828.13;5011183;28;20058;-63
2022/09/02 06:21:04;;;;;;;8.02;4.70;;;;;;;11.20;77.98;93830.72;5010857;28;20076;-63
2022/09/02 06:23:35;;;;;;;7.40;4.60;;;;;;;11.42;76.88;93822.81;5011239;28;20050;-63
2022/09/02 06:26:02;;;;;;;6.13;4.70;;;;;;;11.52;76.35;93821.06;5010283;28;20038;-63
2022/09/02 06:28:28;;;;;;;7.77;4.77;;;;;;;11.57;76.49;93820.59;5011311;28;20438;-63
2022/09/02 06:30:55;;;;;;;5.88;4.07;;;;;;;11.70;76.28;93812.44;5010575;28;20038;-67
2022/09/02 06:33:23;;;;;;;6.90;4.40;;;;;;;11.90;76.09;93815.97;5011277;28;20042;-67
2022/09/02 06:35:49;;;;;;;6.05;4.38;;;;;;;11.89;75.41;93808.13;5010786;28;20046;-63
2022/09/02 06:38:18;;;;;;;5.43;3.80;;;;;;;12.09;75.99;93819.09;5010966;28;20064;-65
2022/09/02 06:40:53;;;;;;;6.10;4.37;;;;;;;12.12;75.37;93815.50;5009288;28;20068;-64
2022/09/02 06:43:20;;;;;;;5.55;4.10;;;;;;;13.49;72.09;93802.59;5009916;28;20049;-64
2022/09/02 06:45:47;;;;;;;7.78;3.90;;;;;;;17.08;60.07;93795.66;5010246;28;20071;-64
2022/09/02 06:48:14;;;;;;;5.95;4.18;;;;;;;20.07;50.29;93794.13;5010506;28;20054;-64
2022/09/02 06:50:43;;;;;;;5.75;3.20;;;;;;;20.31;47.77;93796.06;5010537;28;20402;-68
2022/09/02 06:53:11;;;;;;;4.10;3.13;;;;;;;22.50;42.75;93792.41;5010657;28;20045;-69
2022/09/02 06:55:41;;;;;;;3.70;2.80;;;;;;;22.97;42.52;93791.44;5010617;28;20056;-68
2022/09/02 06:58:08;;;;;;;4.60;2.78;;;;;;;23.09;41.53;93793.06;5010558;28;20068;-66
2022/09/02 07:00:35;;;;;;;4.35;2.47;;;;;;;22.95;41.74;93789.13;5008926;28;20052;-65
2022/09/02 07:06:21;;;;;;;4.03;2.93;;;;;;;26.00;36.48;93792.13;5010844;28;20038;-65
2022/09/02 07:08:48;;;;;;;4.78;2.92;;;;;;;25.22;37.21;93788.31;4986811;28;20084;-65
2022/09/02 07:11:18;;;;;;;4.07;2.80;;;;;;;27.55;32.93;93786.16;5010449;28;20044;-63
2022/09/02 07:13:45;;;;;;;4.28;2.78;;;;;;;24.98;36.54;93783.25;5010212;28;20045;-63
2022/09/02 07:16:13;;;;;;;5.07;2.90;;;;;;;26.37;34.46;93779.59;5010037;28;20040;-65
2022/09/02 07:18:52;;;;;;;5.77;3.00;;;;;;;27.03;33.24;93785.94;5010015;28;20058;-65
2022/09/02 07:21:19;;;;;;;3.65;2.60;;;;;;;26.70;34.42;93784.97;5010530;28;20042;-63
2022/09/02 07:23:45;;;;;;;4.32;2.60;;;;;;;27.67;31.62;93776.31;5009949;28;20392;-67
2022/09/02 07:26:14;;;;;;;4.00;2.95;;;;;;;23.88;37.11;93782.19;5010089;28;20042;-66
2022/09/02 07:28:42;;;;;;;4.63;2.90;;;;;;;27.34;32.60;93785.91;5009920;28;20045;-64
2022/09/02 07:31:10;;;;;;;7.10;3.00;;;;;;;25.37;36.48;93774.72;5009920;28;20115;-63
2022/09/02 07:33:36;;;;;;;4.13;2.90;;;;;;;27.58;31.88;93776.66;5009844;28;20057;-64
2022/09/02 07:36:04;;;;;;;5.70;3.10;;;;;;;28.59;29.80;93769.63;5009713;28;20044;-64
2022/09/02 07:38:37;;;;;;;4.53;3.03;;;;;;;28.60;28.59;93770.41;5009783;28;20050;-68
2022/09/02 07:41:04;;;;;;;5.13;2.53;;;;;;;30.67;26.81;93767.56;5010104;28;20143;-68
2022/09/02 07:43:32;;;;;;;4.13;2.47;;;;;;;31.42;25.41;93767.97;5010092;28;20050;-64
2022/09/02 07:46:00;;;;;;;4.30;2.70;;;;;;;26.14;31.21;93771.31;5008898;28;21788;-63
2022/09/02 07:48:29;;;;;;;3.60;2.63;;;;;;;24.66;35.30;93778.69;5010118;28;20045;-63
2022/09/02 07:50:56;;;;;;;3.90;2.50;;;;;;;27.09;32.11;93777.44;5009547;28;20042;-63
2022/09/02 07:53:23;;;;;;;3.78;2.30;;;;;;;30.59;27.07;93775.22;5024862;28;20046;-63
2022/09/02 07:55:50;;;;;;;4.47;2.60;;;;;;;30.70;26.56;93782.69;5009493;28;20073;-63
2022/09/02 07:58:19;;;;;;;3.80;2.50;;;;;;;31.74;24.94;93778.19;5009334;28;20476;-67
2022/09/02 08:00:48;;;;;;;3.67;2.30;;;;;;;32.22;23.99;93787.16;5009420;28;20054;-64
2022/09/02 08:03:16;;;;;;;3.75;2.40;;;;;;;29.97;26.74;93779.44;5009734;28;20042;-67
2022/09/02 08:05:45;;;;;;;3.75;2.40;;;;;;;26.54;30.24;93783.03;5009613;28;20049;-66
2022/09/02 08:08:20;;;;;;;3.90;2.40;;;;;;;26.21;31.72;93787.63;5009430;28;20605;-64
2022/09/02 08:10:51;;;;;;;4.18;2.60;;;;;;;27.12;30.75;93795.34;5009354;28;20050;-65
2022/09/02 08:13:18;;;;;;;5.15;2.90;;;;;;;23.92;36.88;93786.28;5009154;28;20052;-65
2022/09/02 08:15:45;;;;;;;3.90;2.75;;;;;;;26.50;32.23;93779.72;5008033;28;20054;-66
2022/09/02 08:18:17;;;;;;;4.25;2.70;;;;;;;25.24;34.59;93777.34;5009280;28;20095;-64
2022/09/02 08:20:48;;;;;;;3.43;2.50;;;;;;;29.92;27.26;93768.97;5009679;28;20123;-68
2022/09/02 08:23:15;;;;;;;5.00;2.70;;;;;;;24.34;35.35;93786.56;5009609;28;20060;-64
2022/09/02 08:26:04;;;;;;;5.00;2.95;;;;;;;24.72;34.86;93782.25;5007070;28;20258;-64
2022/09/02 08:28:31;;;;;;;4.35;2.38;;;;;;;25.68;33.85;93776.41;5011813;28;20045;-63
2022/09/02 08:30:58;;;;;;;5.47;3.30;;;;;;;25.51;34.18;93781.31;5012698;28;20053;-63
2022/09/02 08:33:25;;;;;;;3.37;2.57;;;;;;;25.54;33.97;93776.72;5013506;28;20614;-67
2022/09/02 08:35:52;;;;;;;3.92;2.70;;;;;;;24.87;34.04;93789.63;5013161;28;20053;-63
2022/09/02 08:38:20;;;;;;;4.88;2.90;;;;;;;22.72;38.68;93777.81;5013047;28;20049;-67
2022/09/02 08:40:49;;;;;;;4.07;3.00;;;;;;;24.01;36.36;93771.25;5012769;28;20058;-65
2022/09/02 08:43:46;;;;;;;3.85;2.78;;;;;;;24.10;35.56;93775.84;5012990;28;20041;-64
2022/09/02 08:46:16;;;;;;;3.40;2.43;;;;;;;26.13;33.69;93772.59;5006999;28;20316;-67
2022/09/02 08:48:54;;;;;;;4.25;3.25;;;;;;;19.96;43.83;93791.19;5012220;28;20441;-68
2022/09/02 08:51:29;;;;;;;4.93;3.20;;;;;;;20.31;43.21;93777.31;5012871;28;20045;-64
2022/09/02 08:54:41;;;;;;;4.68;3.50;;;;;;;21.30;42.32;93779.72;5012177;28;20643;-64
2022/09/02 08:57:09;;;;;;;4.20;2.60;;;;;;;26.89;32.32;93773.03;5011766;28;20731;-64
2022/09/02 08:59:36;;;;;;;4.80;2.90;;;;;;;27.05;31.99;93772.09;5012822;28;20407;-64
2022/09/02 09:02:22;;;;;;;4.25;2.97;;;;;;;22.73;37.24;93773.72;5012737;28;20509;-64
2022/09/02 09:05:06;;;;;;;4.20;2.80;;;;;;;21.22;41.56;93778.59;5011398;28;20058;-67
2022/09/02 09:07:42;;;;;;;4.25;3.00;;;;;;;21.46;42.37;93768.00;5012190;28;20449;-68
2022/09/02 09:10:30;;;;;;;3.63;2.60;;;;;;;22.81;38.57;93762.09;5012276;28;20532;-64
2022/09/02 09:12:57;;;;;;;4.83;3.30;;;;;;;20.69;42.13;93774.88;5012054;28;20868;-65
2022/09/02 09:15:33;;;;;;;3.90;2.90;;;;;;;20.18;43.14;93764.91;5012348;28;20033;-64
2022/09/02 09:18:04;;;;;;;5.25;3.20;;;;;;;21.03;42.38;93770.50;5023698;28;20368;-64
2022/09/02 09:20:33;;;;;;;4.78;2.80;;;;;;;22.71;38.99;93758.72;5013266;28;20080;-64
2022/09/02 09:23:09;;;;;;;5.47;2.90;;;;;;;23.03;37.18;93765.03;5012148;28;20735;-64
2022/09/02 09:25:36;;;;;;;4.00;2.70;;;;;;;25.00;35.00;93761.03;5012336;28;20045;-63
2022/09/02 09:28:02;;;;;;;4.90;2.83;;;;;;;23.23;37.94;93755.72;5012194;28;20376;-72
2022/09/02 09:30:31;;;;;;;5.43;2.80;;;;;;;24.83;35.04;93759.03;4997174;28;20045;-64
2022/09/02 09:33:00;;;;;;;3.65;2.85;;;;;;;25.31;34.57;93748.69;5011481;28;20748;-68
2022/09/02 09:35:45;;;;;;;4.57;2.97;;;;;;;23.80;36.45;93755.91;5011857;28;20046;-65
2022/09/02 09:38:13;;;;;;;4.10;2.53;;;;;;;27.49;30.90;93758.81;5011081;28;20170;-68
2022/09/02 09:40:40;;;;;;;3.70;2.60;;;;;;;25.56;34.14;93760.13;5011873;28;20056;-66
2022/09/02 09:43:11;;;;;;;8.18;3.00;;;;;;;24.03;36.42;93760.31;5012094;28;20038;-64
2022/09/02 09:45:46;;;;;;;3.50;2.60;;;;;;;27.33;33.29;93756.97;5011388;28;20069;-64
2022/09/02 09:48:21;;;;;;;3.45;2.30;;;;;;;29.93;27.99;93747.88;5011995;28;20042;-65
2022/09/02 09:51:10;;;;;;;3.70;2.60;;;;;;;29.61;28.09;93750.84;5011519;28;20073;-63
2022/09/02 09:53:39;;;;;;;4.50;2.40;;;;;;;31.73;25.13;93739.03;5011501;28;20054;-68
2022/09/02 09:56:14;;;;;;;3.53;2.40;;;;;;;28.83;28.75;93740.47;5011701;28;20434;-66
2022/09/02 09:58:44;;;;;;;3.78;2.65;;;;;;;29.74;28.53;93730.28;5011414;28;20410;-64
2022/09/02 10:01:33;;;;;;;5.45;2.60;;;;;;;31.92;24.93;93730.25;5011626;28;20038;-65
2022/09/02 10:04:28;;;;;;;4.57;2.60;;;;;;;32.06;26.03;93725.22;5011000;28;21794;-68
2022/09/02 10:07:12;;;;;;;3.50;2.30;;;;;;;31.18;25.58;93720.94;5010292;28;20061;-68
2022/09/02 10:09:39;;;;;;;3.67;2.70;;;;;;;26.90;31.92;93735.91;5011083;28;20046;-64
2022/09/02 10:12:12;;;;;;;3.92;2.53;;;;;;;29.31;28.38;93715.22;5011395;28;20042;-73
2022/09/02 10:14:44;;;;;;;3.40;2.47;;;;;;;27.84;30.47;93722.50;5011266;28;20360;-70
2022/09/02 10:17:39;;;;;;;4.33;2.70;;;;;;;27.80;30.52;93722.78;5005062;28;20042;-70
2022/09/02 10:20:23;;;;;;;4.82;2.70;;;;;;;31.20;26.62;93717.56;5011077;28;20746;-64
2022/09/02 10:23:03;;;;;;;5.85;3.20;;;;;;;32.28;24.65;93709.53;4997889;28;20131;-65
2022/09/02 10:25:39;;;;;;;6.13;2.45;;;;;;;31.83;25.36;93711.66;5011048;28;20037;-67
2022/09/02 10:28:30;;;;;;;3.42;2.30;;;;;;;29.46;28.38;93711.84;5010393;28;21836;-74
2022/09/02 10:31:12;;;;;;;7.10;2.50;;;;;;;30.21;26.97;93718.94;5010500;28;20101;-68
2022/09/02 10:33:51;;;;;;;3.10;2.25;;;;;;;29.94;26.75;93714.69;5009505;28;20045;-66
2022/09/02 10:37:05;;;;;;;3.65;2.25;;;;;;;29.42;27.61;93700.84;5010923;28;20045;-67
2022/09/02 10:39:50;;;;;;;3.47;2.33;;;;;;;27.56;30.95;93714.41;5005084;28;20077;-66
2022/09/02 10:42:21;;;;;;;3.30;2.40;;;;;;;28.81;29.36;93712.00;5010713;28;20050;-64
2022/09/02 10:45:29;;;;;;;3.40;2.33;;;;;;;28.71;28.35;93710.16;5010412;28;20052;-67
2022/09/02 10:48:08;;;;;;;5.50;2.42;;;;;;;28.25;29.80;93715.75;5010568;28;20042;-65
2022/09/02 10:50:52;;;;;;;3.50;2.50;;;;;;;28.80;28.30;93707.66;5009802;28;20064;-66
2022/09/02 10:53:29;;;;;;;3.80;2.20;;;;;;;29.64;26.98;93701.66;5010831;28;20052;-66
2022/09/02 10:56:00;;;;;;;3.20;2.10;;;;;;;30.82;26.27;93701.00;5009304;28;20041;-66
2022/09/02 10:58:51;;;;;;;3.97;2.30;;;;;;;30.14;26.40;93699.81;5010723;28;20044;-65
2022/09/02 11:01:24;;;;;;;3.10;2.20;;;;;;;29.46;27.70;93697.72;5009661;28;20631;-64
2022/09/02 11:03:56;;;;;;;4.35;2.45;;;;;;;29.87;27.21;93699.16;5010716;28;20058;-65
2022/09/02 11:06:31;;;;;;;4.25;2.70;;;;;;;29.03;27.93;93699.53;5010514;28;20044;-64
2022/09/02 11:09:39;;;;;;;3.35;2.20;;;;;;;29.77;27.08;93700.94;5009618;28;20823;-64
2022/09/02 11:12:30;;;;;;;4.03;2.57;;;;;;;30.13;27.38;93698.31;5009784;28;20041;-64
2022/09/02 11:15:15;;;;;;;3.78;2.72;;;;;;;28.70;29.66;93698.09;5009748;28;21827;-68
2022/09/02 11:17:52;;;;;;;4.20;2.78;;;;;;;26.30;32.92;93707.78;5008091;28;20045;-64
2022/09/02 11:20:49;;;;;;;4.35;2.80;;;;;;;24.70;37.07;93700.63;5010345;28;20041;-64
2022/09/02 11:23:17;;;;;;;3.75;2.80;;;;;;;25.18;34.64;93700.75;5009271;28;20624;-63
2022/09/02 11:25:52;;;;;;;4.00;3.37;;;;;;;24.76;35.78;93692.19;5009809;28;20099;-64
2022/09/02 11:28:18;;;;;;;3.90;3.00;;;;;;;24.70;36.69;93695.00;5009968;28;20049;-64
2022/09/02 11:30:57;;;;;;;3.95;2.83;;;;;;;24.88;35.50;93692.94;5009709;28;20042;-64
2022/09/02 11:33:44;;;;;;;4.63;3.13;;;;;;;23.37;38.81;93709.19;5010194;28;20042;-63
2022/09/02 11:36:11;;;;;;;4.88;3.20;;;;;;;23.39;39.00;93701.03;5006606;28;20649;-65
2022/09/02 11:39:30;;;;;;;5.10;3.30;;;;;;;23.56;39.74;93705.91;5009620;28;20064;-67
2022/09/02 11:42:49;;;;;;;4.70;3.20;;;;;;;23.12;40.64;93694.09;4986519;28;21592;-66
2022/09/02 11:45:42;;;;;;;4.53;3.42;;;;;;;22.38;43.17;93701.31;5001110;28;20399;-67
2022/09/02 11:48:32;;;;;;;5.00;3.30;;;;;;;21.84;42.59;93704.66;5009184;28;20876;-75
2022/09/02 11:51:04;;;;;;;4.35;3.38;;;;;;;21.69;41.97;93712.38;5009250;28;20971;-63
2022/09/02 11:53:37;;;;;;;4.63;2.90;;;;;;;23.27;39.06;93696.69;5009814;28;20052;-63
2022/09/02 11:56:13;;;;;;;5.65;2.90;;;;;;;23.03;38.88;93702.69;5009187;28;20914;-64
2022/09/02 11:58:44;;;;;;;4.65;3.30;;;;;;;22.34;41.91;93697.97;5009431;28;20046;-63
2022/09/02 12:01:13;;;;;;;5.28;3.28;;;;;;;22.73;40.91;93695.41;5009585;28;20058;-62
2022/09/02 12:04:09;;;;;;;4.82;3.08;;;;;;;23.04;39.68;93696.59;5008485;28;20406;-67